This is the latest recevied weather packets stored in our database for station/object YG1CIC-13. If no packets are shown the sender has not sent any weather packets the latest 10 day(s).
| Time | Temp. | Humidity | Pressure | Rain* | Wind** | Luminosity | Snow |
|---|---|---|---|---|---|---|---|
| 1777529817 | 32.22° C | 78% | - | 0 mm | - | - | - |
| 1777529217 | 32.78° C | 79% | - | 0 mm | - | - | - |
| 1777528616 | 34.44° C | 73% | - | 0 mm | - | - | - |
| 1777528015 | 35° C | 63% | - | 0 mm | - | - | - |
| 1777527415 | 35° C | 63% | - | 0 mm | - | - | - |
| 1777526814 | 35° C | 62% | - | 0 mm | - | - | - |
| 1777526214 | 36.67° C | 59% | - | 0 mm | - | - | - |
| 1777525613 | 36.67° C | 59% | - | 0 mm | - | - | - |
| 1777525012 | 36.11° C | 62% | - | 0 mm | - | - | - |
| 1777524419 | 34.44° C | 64% | - | 0 mm | - | - | - |
| 1777523812 | 35° C | 63% | - | 0 mm | - | - | - |
| 1777523211 | 35.56° C | 62% | - | 0 mm | - | - | - |
| 1777522611 | 36.67° C | 62% | - | 0 mm | - | - | - |
| 1777522010 | 36.67° C | 63% | - | 0 mm | - | - | - |
| 1777521409 | 35.56° C | 65% | - | 0 mm | - | - | - |
| 1777520809 | 34.44° C | 69% | - | 0 mm | - | - | - |
| 1777520208 | 34.44° C | 68% | - | 0 mm | - | - | - |
| 1777519607 | 33.33° C | 71% | - | 0 mm | - | - | - |
| 1777519007 | 32.78° C | 72% | - | 0 mm | - | - | - |
| 1777518406 | 34.44° C | 67% | - | 0 mm | - | - | - |
| 1777517805 | 34.44° C | 69% | - | 0 mm | - | - | - |
| 1777517205 | 34.44° C | 68% | - | 0 mm | - | - | - |
| 1777516604 | 35° C | 66% | - | 0 mm | - | - | - |
| 1777516004 | 36.67° C | 63% | - | 0 mm | - | - | - |
| 1777515403 | 35° C | 68% | - | 0 mm | - | - | - |
* Rain latest hour (hover to see other rain measurements)
** Current wind speed in m/s (hover to see current wind gust speed)